Time;durP1;ratioP1;P1;durP2;ratioP2;P2;SDS_P1;SDS_P2;PMS_P1;PMS_P2;Temp;Humidity;BMP_temperature;BMP_pressure;BME280_temperature;BME280_humidity;BME280_pressure;Samples;Min_cycle;Max_cycle;Signal;HPM_P1;HPM_P2
2023/12/16 00:00:15;;;;;;;654.05;355.17;;;;;;;5.99;100.00;100128.84;5038987;28;20029;-52
2023/12/16 00:02:41;;;;;;;531.92;348.10;;;;;;;6.15;100.00;100133.91;5040421;28;20707;-53
2023/12/16 00:05:08;;;;;;;689.72;360.77;;;;;;;6.00;100.00;100140.06;5038714;28;20125;-53
2023/12/16 00:07:33;;;;;;;565.85;350.17;;;;;;;6.03;100.00;100145.44;5038055;28;20108;-53
2023/12/16 00:09:59;;;;;;;577.20;351.08;;;;;;;5.92;100.00;100156.88;5038670;28;20266;-54
2023/12/16 00:12:24;;;;;;;600.90;351.42;;;;;;;5.92;100.00;100172.38;5037046;28;20039;-54
2023/12/16 00:14:49;;;;;;;552.80;351.33;;;;;;;5.79;100.00;100181.22;5040639;28;20044;-55
2023/12/16 00:17:15;;;;;;;673.42;357.77;;;;;;;6.06;100.00;100181.78;5037714;28;20622;-54
2023/12/16 00:19:40;;;;;;;551.60;348.30;;;;;;;5.97;100.00;100176.06;5039406;28;20461;-52
2023/12/16 00:22:06;;;;;;;594.65;355.20;;;;;;;6.04;100.00;100183.38;5039822;28;20076;-53
2023/12/16 00:24:32;;;;;;;544.80;349.20;;;;;;;5.82;100.00;100181.34;5041414;28;20091;-55
2023/12/16 00:26:57;;;;;;;620.75;354.30;;;;;;;6.13;100.00;100177.78;5038406;28;20041;-53
2023/12/16 00:29:23;;;;;;;562.78;351.80;;;;;;;6.24;100.00;100174.03;5037791;28;20017;-53
2023/12/16 00:31:48;;;;;;;545.05;349.42;;;;;;;6.37;100.00;100170.38;5039032;28;20045;-54
2023/12/16 00:34:14;;;;;;;719.40;362.58;;;;;;;6.40;100.00;100166.13;5039063;28;20021;-53
2023/12/16 00:36:41;;;;;;;541.30;344.60;;;;;;;6.42;100.00;100161.94;5040339;28;20176;-53
2023/12/16 00:39:07;;;;;;;688.38;355.30;;;;;;;6.23;100.00;100154.16;5039478;28;20029;-54
2023/12/16 00:41:33;;;;;;;583.63;350.63;;;;;;;6.02;100.00;100161.72;5038635;28;20116;-54
2023/12/16 00:43:58;;;;;;;549.17;347.77;;;;;;;6.16;100.00;100164.13;5039252;28;20094;-53
2023/12/16 00:46:23;;;;;;;539.35;343.27;;;;;;;6.27;100.00;100175.88;5037897;28;20112;-54
2023/12/16 00:48:49;;;;;;;609.47;351.15;;;;;;;6.39;100.00;100165.28;5039245;28;20043;-53
2023/12/16 00:51:14;;;;;;;629.83;352.98;;;;;;;6.17;100.00;100171.06;5039008;28;20048;-54
2023/12/16 00:53:39;;;;;;;545.95;351.17;;;;;;;6.18;100.00;100159.91;5040235;28;20045;-54
2023/12/16 00:56:05;;;;;;;630.55;353.40;;;;;;;6.07;100.00;100162.88;5037919;28;20263;-53
2023/12/16 00:58:31;;;;;;;567.92;352.77;;;;;;;6.14;100.00;100156.31;5039405;28;20025;-52
2023/12/16 01:00:56;;;;;;;582.97;351.90;;;;;;;6.10;100.00;100159.53;5039379;28;20200;-54
2023/12/16 01:03:21;;;;;;;541.33;349.42;;;;;;;6.11;100.00;100154.47;5037919;28;20041;-53
2023/12/16 01:05:47;;;;;;;557.63;351.38;;;;;;;6.09;100.00;100162.94;5039879;28;20037;-54
2023/12/16 01:08:12;;;;;;;650.92;359.83;;;;;;;6.11;100.00;100164.78;5038562;28;20033;-53
2023/12/16 01:10:38;;;;;;;565.70;354.85;;;;;;;6.31;100.00;100157.13;5021370;28;20040;-53
2023/12/16 01:13:04;;;;;;;556.80;353.05;;;;;;;6.04;100.00;100162.69;5038751;28;20029;-52
2023/12/16 01:15:30;;;;;;;558.28;353.42;;;;;;;6.15;100.00;100155.50;5039103;28;20064;-53
2023/12/16 01:17:55;;;;;;;552.47;354.05;;;;;;;6.17;100.00;100161.63;5041178;28;20048;-53
2023/12/16 01:20:20;;;;;;;701.38;363.33;;;;;;;6.21;100.00;100162.66;5042116;28;20045;-53
2023/12/16 01:22:46;;;;;;;562.45;352.00;;;;;;;6.29;100.00;100168.19;5043370;28;20037;-52
2023/12/16 01:25:11;;;;;;;665.65;364.33;;;;;;;6.14;100.00;100178.66;5042119;28;20033;-53
2023/12/16 01:27:36;;;;;;;574.95;357.42;;;;;;;6.04;100.00;100180.78;5043766;28;20493;-53
2023/12/16 01:30:03;;;;;;;576.88;354.88;;;;;;;6.07;100.00;100180.94;5043393;28;20025;-53
2023/12/16 01:32:29;;;;;;;550.10;354.40;;;;;;;5.90;100.00;100192.09;5041399;28;20511;-53
2023/12/16 01:34:54;;;;;;;575.75;353.55;;;;;;;5.92;100.00;100191.38;5042986;28;20020;-54
2023/12/16 01:37:20;;;;;;;712.10;364.90;;;;;;;6.19;100.00;100187.53;5041360;28;20068;-54
2023/12/16 01:39:45;;;;;;;565.65;356.85;;;;;;;6.12;100.00;100174.31;5042976;28;20017;-53
2023/12/16 01:42:11;;;;;;;674.20;364.45;;;;;;;6.08;100.00;100180.13;5042113;28;20033;-53
2023/12/16 01:44:36;;;;;;;567.60;360.35;;;;;;;6.13;100.00;100182.97;5043120;28;20064;-52
2023/12/16 01:47:02;;;;;;;557.30;358.77;;;;;;;5.92;100.00;100180.13;5042779;28;20180;-51
2023/12/16 01:49:28;;;;;;;550.83;358.33;;;;;;;6.07;100.00;100188.72;5041601;28;20028;-52
2023/12/16 01:51:53;;;;;;;622.97;362.83;;;;;;;6.03;100.00;100191.00;5041683;28;20116;-54
2023/12/16 01:54:20;;;;;;;640.28;366.23;;;;;;;6.19;100.00;100187.53;5041790;28;20025;-53
2023/12/16 01:56:55;;;;;;;524.22;354.92;;;;;;;6.02;100.00;100187.56;5042505;28;20421;-54
2023/12/16 01:59:21;;;;;;;748.40;373.13;;;;;;;6.03;100.00;100188.44;5038562;28;20041;-54
2023/12/16 02:01:46;;;;;;;553.72;353.40;;;;;;;6.22;100.00;100190.28;5042631;28;20033;-54
2023/12/16 02:04:12;;;;;;;698.22;363.65;;;;;;;6.28;100.00;100189.69;5041895;28;20095;-54
2023/12/16 02:06:39;;;;;;;601.78;356.92;;;;;;;6.20;100.00;100184.16;5041646;28;20369;-54
2023/12/16 02:09:06;;;;;;;564.42;352.63;;;;;;;6.35;100.00;100176.28;5024371;28;20271;-53
2023/12/16 02:11:31;;;;;;;561.67;353.85;;;;;;;6.38;100.00;100187.63;5042843;28;20488;-52
2023/12/16 02:13:56;;;;;;;592.50;357.25;;;;;;;6.34;100.00;100183.13;5043427;28;20029;-52
2023/12/16 02:16:22;;;;;;;616.97;354.60;;;;;;;6.26;100.00;100184.44;5039987;28;20041;-52
2023/12/16 02:18:49;;;;;;;590.97;356.42;;;;;;;6.16;100.00;100180.50;5041765;28;20124;-53
2023/12/16 02:21:14;;;;;;;720.25;367.75;;;;;;;6.12;100.00;100194.09;5040167;28;20049;-51
2023/12/16 02:23:41;;;;;;;554.30;360.35;;;;;;;6.19;100.00;100187.53;5041876;28;20039;-54
2023/12/16 02:26:06;;;;;;;548.17;351.85;;;;;;;6.22;100.00;100185.09;5040880;28;20048;-57
2023/12/16 02:28:32;;;;;;;543.60;355.85;;;;;;;6.17;100.00;100181.41;5042168;28;20029;-54
2023/12/16 02:30:57;;;;;;;553.95;355.08;;;;;;;6.15;100.00;100180.44;5040850;28;20139;-52
2023/12/16 02:33:22;;;;;;;727.03;365.88;;;;;;;6.20;100.00;100173.81;5040490;28;20029;-53
2023/12/16 02:35:48;;;;;;;581.25;358.17;;;;;;;6.20;100.00;100173.81;5041754;28;20039;-53
2023/12/16 02:38:13;;;;;;;679.78;364.55;;;;;;;6.28;100.00;100166.44;5039695;28;20147;-53
2023/12/16 02:40:42;;;;;;;581.75;356.75;;;;;;;6.35;100.00;100171.97;5040133;28;20037;-53
2023/12/16 02:43:10;;;;;;;560.88;353.80;;;;;;;6.21;100.00;100160.97;5041963;28;20062;-54
2023/12/16 02:45:35;;;;;;;549.70;342.17;;;;;;;6.15;100.00;100168.41;5040532;28;20029;-53
2023/12/16 02:48:00;;;;;;;603.03;354.25;;;;;;;6.05;100.00;100171.34;5041415;28;20039;-53
2023/12/16 02:50:26;;;;;;;599.17;354.85;;;;;;;6.17;100.00;100165.91;5040193;28;20037;-53
2023/12/16 02:52:51;;;;;;;555.55;354.52;;;;;;;6.13;100.00;100157.13;5041528;28;20107;-53
2023/12/16 02:55:19;;;;;;;738.10;373.50;;;;;;;6.12;100.00;100168.25;5014941;28;20059;-54
2023/12/16 02:57:44;;;;;;;567.20;361.10;;;;;;;6.06;100.00;100163.69;5042154;28;20025;-53
2023/12/16 03:00:10;;;;;;;537.13;346.17;;;;;;;5.99;100.00;100159.84;5039150;28;20031;-52
2023/12/16 03:02:36;;;;;;;583.08;344.10;;;;;;;6.10;100.00;100160.44;5040254;28;20039;-53
2023/12/16 03:05:01;;;;;;;542.72;331.40;;;;;;;5.98;100.00;100159.78;5042038;28;20045;-54
2023/12/16 03:07:26;;;;;;;692.50;350.85;;;;;;;5.91;100.00;100157.69;5040814;28;20047;-53
2023/12/16 03:09:52;;;;;;;606.75;346.60;;;;;;;5.87;100.00;100156.66;5041740;28;20159;-53
2023/12/16 03:12:17;;;;;;;627.85;354.40;;;;;;;5.81;100.00;100171.84;5039954;28;20112;-53
2023/12/16 03:14:42;;;;;;;552.40;345.45;;;;;;;6.00;100.00;100150.41;5041379;28;20091;-52
2023/12/16 03:17:09;;;;;;;568.35;348.20;;;;;;;5.98;100.00;100162.38;5039794;28;20066;-54
2023/12/16 03:19:34;;;;;;;537.85;344.58;;;;;;;6.02;100.00;100176.31;5039418;28;20051;-52
2023/12/16 03:21:59;;;;;;;524.53;334.02;;;;;;;5.87;100.00;100182.50;5041264;28;20037;-54
2023/12/16 03:24:25;;;;;;;748.85;354.88;;;;;;;5.99;100.00;100185.69;5039280;28;20379;-54
2023/12/16 03:26:50;;;;;;;548.55;330.23;;;;;;;5.98;100.00;100199.41;5040190;28;20033;-54
2023/12/16 03:29:15;;;;;;;656.72;341.42;;;;;;;5.94;100.00;100199.19;5039578;28;20032;-54
2023/12/16 03:31:41;;;;;;;561.33;327.83;;;;;;;6.00;100.00;100199.50;5040553;28;20036;-53
2023/12/16 03:34:06;;;;;;;552.30;334.08;;;;;;;5.96;100.00;100208.78;5041682;28;20033;-54
2023/12/16 03:36:32;;;;;;;556.35;341.60;;;;;;;6.19;100.00;100208.19;5039913;28;20045;-53
2023/12/16 03:38:57;;;;;;;650.50;351.13;;;;;;;6.16;100.00;100201.19;5039937;28;20055;-53
2023/12/16 03:41:22;;;;;;;660.58;355.90;;;;;;;5.98;100.00;100201.13;5037920;28;20577;-52
2023/12/16 03:43:48;;;;;;;543.33;345.17;;;;;;;6.04;100.00;100197.97;5040368;28;20031;-53
2023/12/16 03:46:13;;;;;;;553.33;347.15;;;;;;;6.00;100.00;100202.06;5039337;28;20037;-52
2023/12/16 03:48:38;;;;;;;553.28;354.30;;;;;;;5.98;100.00;100195.97;5039094;28;20025;-54
2023/12/16 03:51:04;;;;;;;540.70;349.02;;;;;;;5.96;100.00;100193.28;5039571;28;20033;-54
2023/12/16 03:53:29;;;;;;;705.45;366.55;;;;;;;5.93;100.00;100194.81;5039494;28;20044;-52
2023/12/16 03:55:55;;;;;;;545.55;344.95;;;;;;;5.90;100.00;100199.84;5039541;28;20123;-53
2023/12/16 03:58:20;;;;;;;613.17;331.25;;;;;;;6.02;100.00;100195.31;5040141;28;20052;-53
2023/12/16 04:00:45;;;;;;;607.53;354.77;;;;;;;6.11;100.00;100198.38;5039214;28;20029;-53
2023/12/16 04:03:11;;;;;;;541.22;349.33;;;;;;;6.04;100.00;100204.03;5023757;28;20083;-53
2023/12/16 04:05:36;;;;;;;525.72;349.67;;;;;;;6.04;100.00;100203.13;5038493;28;20128;-53
2023/12/16 04:08:03;;;;;;;570.95;348.08;;;;;;;6.01;100.00;100206.44;5039997;28;20386;-52
2023/12/16 04:10:28;;;;;;;676.60;356.70;;;;;;;6.01;100.00;100206.44;5038529;28;20160;-54
2023/12/16 04:12:53;;;;;;;562.45;352.45;;;;;;;5.88;100.00;100196.28;5022761;28;20162;-52
2023/12/16 04:15:19;;;;;;;720.75;372.33;;;;;;;5.95;100.00;100206.13;5038627;28;20045;-54
2023/12/16 04:17:44;;;;;;;546.22;353.23;;;;;;;5.84;100.00;100227.16;5040684;28;20074;-53
2023/12/16 04:20:10;;;;;;;548.85;354.58;;;;;;;5.92;100.00;100230.13;5040017;28;20064;-53
2023/12/16 04:22:37;;;;;;;551.38;353.85;;;;;;;5.91;100.00;100236.09;5038454;28;20117;-53
2023/12/16 04:25:09;;;;;;;553.70;349.90;;;;;;;6.15;100.00;100237.28;5039819;28;20025;-54
2023/12/16 04:27:34;;;;;;;582.03;355.60;;;;;;;6.22;100.00;100234.19;5037314;28;20534;-53
2023/12/16 04:30:00;;;;;;;541.38;354.60;;;;;;;6.09;100.00;100232.72;5039049;28;20017;-52
2023/12/16 04:32:25;;;;;;;708.55;370.83;;;;;;;6.07;100.00;100226.56;5037792;28;20507;-53
2023/12/16 04:34:51;;;;;;;585.95;348.15;;;;;;;6.08;100.00;100225.75;5037834;28;20021;-53
2023/12/16 04:37:16;;;;;;;520.92;347.63;;;;;;;5.99;100.00;100232.19;5039065;28;20276;-54
2023/12/16 04:39:41;;;;;;;561.85;349.83;;;;;;;6.07;100.00;100236.91;5039909;28;20476;-53
2023/12/16 04:42:09;;;;;;;571.15;356.85;;;;;;;6.11;100.00;100233.66;5039818;28;20048;-53
2023/12/16 04:44:36;;;;;;;694.88;358.08;;;;;;;6.13;100.00;100239.81;5038786;28;20542;-54
2023/12/16 04:47:01;;;;;;;576.75;353.30;;;;;;;6.02;100.00;100241.81;5038419;28;20084;-53
2023/12/16 04:49:26;;;;;;;721.70;368.38;;;;;;;5.96;100.00;100244.97;5038241;28;20041;-52
2023/12/16 04:51:52;;;;;;;583.95;359.65;;;;;;;6.22;100.00;100242.84;5039200;28;20489;-53
2023/12/16 04:54:17;;;;;;;536.38;353.90;;;;;;;6.17;100.00;100236.56;5038315;28;20035;-53
2023/12/16 04:56:42;;;;;;;563.47;326.85;;;;;;;6.06;100.00;100224.78;5039291;28;20180;-53
2023/12/16 04:59:08;;;;;;;574.58;333.58;;;;;;;6.11;100.00;100226.81;5039816;28;20040;-52
2023/12/16 05:01:33;;;;;;;605.92;348.80;;;;;;;6.00;100.00;100227.91;5037753;28;20041;-52
2023/12/16 05:03:59;;;;;;;611.67;349.50;;;;;;;5.97;100.00;100227.75;5039540;28;20408;-53
2023/12/16 05:06:24;;;;;;;682.25;355.92;;;;;;;5.94;100.00;100223.31;5015441;28;20416;-53
2023/12/16 05:08:49;;;;;;;563.33;349.30;;;;;;;5.85;100.00;100234.06;5039172;28;20021;-53
2023/12/16 05:11:15;;;;;;;608.17;350.08;;;;;;;5.86;100.00;100237.53;5038085;28;20900;-51
2023/12/16 05:13:42;;;;;;;530.63;349.20;;;;;;;5.87;100.00;100252.25;5039115;28;20055;-53
2023/12/16 05:16:07;;;;;;;516.25;351.98;;;;;;;5.76;100.00;100246.50;5039330;28;20044;-53
2023/12/16 05:18:33;;;;;;;742.90;365.58;;;;;;;5.79;100.00;100245.78;5036545;28;20098;-54
2023/12/16 05:20:58;;;;;;;539.40;345.25;;;;;;;5.83;100.00;100235.69;5038553;28;21085;-54
2023/12/16 05:23:23;;;;;;;605.92;354.65;;;;;;;5.81;100.00;100233.81;5014863;28;20111;-52
2023/12/16 05:25:49;;;;;;;622.47;358.20;;;;;;;5.79;100.00;100231.16;5038891;28;20083;-54
2023/12/16 05:28:14;;;;;;;524.85;346.58;;;;;;;5.76;100.00;100243.94;5039829;28;20496;-52
2023/12/16 05:30:39;;;;;;;533.58;345.17;;;;;;;5.80;100.00;100232.06;5037560;28;20622;-54
2023/12/16 05:33:05;;;;;;;589.08;349.98;;;;;;;5.79;100.00;100233.75;5040308;28;20469;-52
2023/12/16 05:35:31;;;;;;;683.30;360.58;;;;;;;5.82;100.00;100236.50;5037104;28;20033;-53
2023/12/16 05:37:56;;;;;;;550.47;346.45;;;;;;;5.81;100.00;100229.56;5039586;28;20463;-52
2023/12/16 05:40:22;;;;;;;665.08;361.50;;;;;;;5.74;100.00;100232.63;5036652;28;20520;-54
2023/12/16 05:42:47;;;;;;;525.10;350.33;;;;;;;5.82;100.00;100233.00;5022018;28;20491;-52
2023/12/16 05:45:13;;;;;;;493.85;347.83;;;;;;;5.94;100.00;100235.38;5039290;28;20448;-53
2023/12/16 05:47:38;;;;;;;750.58;367.23;;;;;;;5.78;100.00;100223.31;5035801;28;20021;-51
2023/12/16 05:50:05;;;;;;;536.95;354.73;;;;;;;5.65;100.00;100229.56;5039167;28;20530;-53
2023/12/16 05:52:31;;;;;;;692.65;364.67;;;;;;;5.85;100.00;100231.50;5036537;28;20029;-53
2023/12/16 05:54:57;;;;;;;608.35;360.75;;;;;;;5.69;100.00;100239.25;5038577;28;20536;-53
2023/12/16 05:57:22;;;;;;;551.38;357.33;;;;;;;5.63;100.00;100244.06;5014372;28;20033;-53
2023/12/16 05:59:47;;;;;;;529.80;349.60;;;;;;;5.66;100.00;100244.22;5039436;28;20166;-51
2023/12/16 06:02:13;;;;;;;574.80;355.30;;;;;;;5.66;100.00;100244.22;5038670;28;20134;-53
2023/12/16 06:04:38;;;;;;;668.83;363.98;;;;;;;5.73;100.00;100244.63;5039153;28;20040;-53
2023/12/16 06:07:04;;;;;;;548.60;352.75;;;;;;;5.67;100.00;100249.50;5041839;28;20041;-52
2023/12/16 06:09:29;;;;;;;705.38;367.88;;;;;;;5.73;100.00;100243.75;5041388;28;20068;-53
2023/12/16 06:11:55;;;;;;;547.33;353.35;;;;;;;5.62;100.00;100242.28;5040992;28;20176;-53
2023/12/16 06:14:21;;;;;;;550.10;354.15;;;;;;;5.79;100.00;100244.06;5042616;28;20115;-53
2023/12/16 06:16:46;;;;;;;618.75;358.55;;;;;;;5.79;100.00;100253.53;5039188;28;20095;-52
2023/12/16 06:19:12;;;;;;;576.38;357.40;;;;;;;5.51;100.00;100245.22;5041412;28;20033;-53
2023/12/16 06:21:37;;;;;;;640.70;362.92;;;;;;;5.52;100.00;100261.56;5039429;28;20052;-54
2023/12/16 06:24:04;;;;;;;582.55;358.65;;;;;;;5.46;100.00;100265.59;5041455;28;20124;-51
2023/12/16 06:26:29;;;;;;;647.65;364.63;;;;;;;5.59;100.00;100262.00;5040910;28;20044;-53
2023/12/16 06:28:55;;;;;;;584.75;358.33;;;;;;;5.56;100.00;100269.56;5041258;28;20033;-53
2023/12/16 06:31:21;;;;;;;563.22;356.98;;;;;;;5.54;100.00;100278.03;5017990;28;20140;-52
2023/12/16 06:33:46;;;;;;;567.83;358.65;;;;;;;5.37;100.00;100290.00;5040907;28;20027;-53
2023/12/16 06:36:11;;;;;;;574.55;361.42;;;;;;;5.42;100.00;100299.78;5039492;28;20037;-52
2023/12/16 06:38:37;;;;;;;713.42;370.92;;;;;;;5.47;100.00;100292.31;5039434;28;20182;-53
2023/12/16 06:41:03;;;;;;;530.10;357.05;;;;;;;5.41;100.00;100291.97;5041593;28;20124;-53
2023/12/16 06:43:29;;;;;;;696.55;374.17;;;;;;;5.58;100.00;100286.06;5040450;28;20063;-53
2023/12/16 06:45:54;;;;;;;575.85;356.35;;;;;;;5.49;100.00;100279.50;5039619;28;20033;-54
2023/12/16 06:48:20;;;;;;;529.95;354.33;;;;;;;5.62;100.00;100273.28;5042718;28;20103;-53
2023/12/16 06:50:46;;;;;;;571.50;354.90;;;;;;;5.49;100.00;100264.88;5039444;28;20083;-53
2023/12/16 06:53:11;;;;;;;554.55;354.85;;;;;;;5.43;100.00;100270.63;5023543;28;20040;-54
2023/12/16 06:55:37;;;;;;;670.22;365.95;;;;;;;5.41;100.00;100273.91;5039227;28;20340;-54
2023/12/16 06:58:02;;;;;;;573.40;359.58;;;;;;;5.44;100.00;100276.66;5041144;28;20102;-53
2023/12/16 07:00:28;;;;;;;654.97;367.75;;;;;;;5.49;100.00;100280.34;5038828;28;20039;-53
2023/12/16 07:02:53;;;;;;;547.53;369.77;;;;;;;5.38;100.00;100286.66;5041781;28;20031;-53
2023/12/16 07:05:18;;;;;;;570.38;371.70;;;;;;;5.53;100.00;100271.97;5041208;28;20033;-53
2023/12/16 07:07:44;;;;;;;547.90;369.27;;;;;;;5.52;100.00;100280.53;5039603;28;20025;-54
2023/12/16 07:10:10;;;;;;;516.38;369.50;;;;;;;5.44;100.00;100286.97;5040238;28;20043;-52
2023/12/16 07:12:35;;;;;;;707.90;384.65;;;;;;;5.50;100.00;100289.91;5039238;28;20021;-54
2023/12/16 07:15:00;;;;;;;560.33;373.33;;;;;;;5.60;100.00;100292.16;5041028;28;20013;-53
2023/12/16 07:17:26;;;;;;;496.02;362.80;;;;;;;5.49;100.00;100295.84;5039837;28;20091;-53
2023/12/16 07:19:51;;;;;;;611.92;378.38;;;;;;;5.56;100.00;100290.22;5039644;28;20382;-54
2023/12/16 07:22:17;;;;;;;557.88;369.55;;;;;;;5.55;100.00;100298.78;5040564;28;20123;-53
2023/12/16 07:24:43;;;;;;;668.00;380.63;;;;;;;5.45;100.00;100299.97;5039353;28;20052;-54
2023/12/16 07:27:08;;;;;;;572.42;376.38;;;;;;;5.58;100.00;100300.63;5041280;28;20041;-52
2023/12/16 07:29:34;;;;;;;649.47;376.15;;;;;;;5.61;100.00;100300.81;5039153;28;20492;-54
2023/12/16 07:31:59;;;;;;;566.40;375.95;;;;;;;5.67;100.00;100306.28;5040096;28;20544;-53
2023/12/16 07:34:25;;;;;;;616.70;374.48;;;;;;;5.56;100.00;100303.13;5041595;28;20128;-54
2023/12/16 07:36:50;;;;;;;552.47;371.65;;;;;;;5.66;100.00;100299.38;5039644;28;20044;-52
2023/12/16 07:39:15;;;;;;;565.20;373.67;;;;;;;5.71;100.00;100308.25;5040740;28;20480;-53
2023/12/16 07:41:41;;;;;;;759.38;392.17;;;;;;;5.82;100.00;100313.97;5037958;28;20052;-54
2023/12/16 07:44:06;;;;;;;571.13;373.02;;;;;;;5.76;100.00;100305.00;5040813;28;20017;-53
2023/12/16 07:46:31;;;;;;;657.90;380.00;;;;;;;5.67;100.00;100303.72;5038599;28;20044;-51
2023/12/16 07:48:57;;;;;;;631.42;377.17;;;;;;;5.87;100.00;100309.06;5040110;28;20028;-53
2023/12/16 07:51:25;;;;;;;547.03;371.27;;;;;;;5.77;100.00;100311.94;5040572;28;20093;-52
2023/12/16 07:53:51;;;;;;;565.97;377.35;;;;;;;5.85;100.00;100319.31;5039238;28;20098;-53
2023/12/16 07:56:24;;;;;;;629.40;379.02;;;;;;;5.85;100.00;100316.72;5039098;28;20479;-52
2023/12/16 07:58:51;;;;;;;601.92;374.35;;;;;;;5.86;100.00;100320.19;5038825;28;20104;-53
2023/12/16 08:01:18;;;;;;;580.33;374.30;;;;;;;5.91;100.00;100333.34;5039578;28;20131;-54
2023/12/16 08:03:44;;;;;;;720.78;365.92;;;;;;;5.91;100.00;100338.53;5038178;28;20106;-54
2023/12/16 08:06:09;;;;;;;545.40;359.70;;;;;;;5.94;100.00;100334.41;5039769;28;20040;-53
2023/12/16 08:08:39;;;;;;;720.97;369.95;;;;;;;6.05;100.00;100350.50;5038584;28;20025;-53
2023/12/16 08:11:05;;;;;;;559.50;360.58;;;;;;;6.02;100.00;100346.84;5039619;28;20045;-53
2023/12/16 08:13:30;;;;;;;544.20;363.15;;;;;;;6.21;100.00;100346.16;5038479;28;20408;-53
2023/12/16 08:15:55;;;;;;;607.92;372.23;;;;;;;6.35;100.00;100354.63;5037828;28;20072;-53
2023/12/16 08:18:21;;;;;;;526.92;362.73;;;;;;;6.28;100.00;100352.53;5040321;28;20017;-54
2023/12/16 08:20:46;;;;;;;702.35;378.77;;;;;;;6.34;100.00;100353.75;5039295;28;20095;-52
2023/12/16 08:23:11;;;;;;;607.05;385.85;;;;;;;6.33;100.00;100346.78;5022257;28;20036;-53
2023/12/16 08:25:37;;;;;;;635.65;389.42;;;;;;;5.96;100.00;100357.72;5038141;28;20047;-53
2023/12/16 08:28:03;;;;;;;525.33;373.00;;;;;;;6.04;100.00;100360.75;5040076;28;20579;-53
2023/12/16 08:30:28;;;;;;;601.13;385.02;;;;;;;6.17;100.00;100370.06;5037547;28;20086;-54
2023/12/16 08:32:53;;;;;;;571.28;375.15;;;;;;;6.29;100.00;100360.38;5038352;28;20059;-53
2023/12/16 08:35:19;;;;;;;556.88;369.67;;;;;;;6.45;100.00;100366.31;5038952;28;20060;-53
2023/12/16 08:37:44;;;;;;;730.08;383.33;;;;;;;6.27;100.00;100371.44;5038406;28;20029;-53
2023/12/16 08:40:10;;;;;;;571.58;376.33;;;;;;;6.46;100.00;100369.00;5021023;28;20021;-52
2023/12/16 08:42:36;;;;;;;677.53;379.90;;;;;;;6.24;100.00;100372.16;5036471;28;20021;-54
2023/12/16 08:45:02;;;;;;;603.83;374.90;;;;;;;6.22;100.00;100372.09;5038753;28;20036;-53
2023/12/16 08:47:27;;;;;;;597.03;378.17;;;;;;;6.44;100.00;100362.88;5039798;28;20426;-54
2023/12/16 08:49:53;;;;;;;571.83;368.83;;;;;;;6.42;100.00;100359.28;5038272;28;20036;-53
2023/12/16 08:52:18;;;;;;;591.88;373.02;;;;;;;6.70;100.00;100355.56;5038203;28;20500;-53
2023/12/16 08:54:44;;;;;;;666.63;382.95;;;;;;;6.92;100.00;100369.56;5039152;28;20021;-54
2023/12/16 08:57:09;;;;;;;566.17;378.35;;;;;;;7.14;100.00;100368.94;5040020;28;20481;-53
2023/12/16 08:59:35;;;;;;;670.92;382.95;;;;;;;7.05;100.00;100358.09;5037328;28;20386;-53
2023/12/16 09:02:00;;;;;;;574.40;374.92;;;;;;;6.94;100.00;100364.47;5038853;28;20068;-53
2023/12/16 09:04:26;;;;;;;554.67;375.85;;;;;;;6.81;100.00;100357.78;5039145;28;20024;-54
2023/12/16 09:06:51;;;;;;;593.42;376.83;;;;;;;7.26;100.00;100359.97;5037918;28;21260;-54
2023/12/16 09:09:17;;;;;;;588.35;370.33;;;;;;;7.52;100.00;100361.22;5039462;28;20503;-52
2023/12/16 09:11:44;;;;;;;687.92;380.23;;;;;;;7.74;100.00;100375.19;5038294;28;20814;-52
2023/12/16 09:14:10;;;;;;;666.70;380.30;;;;;;;8.11;100.00;100370.78;5039588;28;20480;-51
2023/12/16 09:16:35;;;;;;;613.85;381.75;;;;;;;8.29;100.00;100378.53;5037913;28;20568;-51
2023/12/16 09:19:00;;;;;;;656.88;379.27;;;;;;;8.01;100.00;100377.25;5038718;28;20558;-52
2023/12/16 09:21:26;;;;;;;619.88;378.02;;;;;;;8.01;100.00;100379.84;5039255;28;20037;-53
2023/12/16 09:23:51;;;;;;;724.78;387.90;;;;;;;8.04;100.00;100385.19;5038631;28;20464;-52
2023/12/16 09:26:17;;;;;;;556.90;367.55;;;;;;;7.85;100.00;100396.41;5039799;28;20043;-52
2023/12/16 09:28:42;;;;;;;785.72;390.92;;;;;;;8.04;100.00;100410.22;5037521;28;20184;-52
2023/12/16 09:31:08;;;;;;;580.90;362.05;;;;;;;7.78;100.00;100405.59;5038679;28;20056;-52
2023/12/16 09:33:33;;;;;;;562.42;360.25;;;;;;;7.32;100.00;100403.38;5039614;28;20563;-53
2023/12/16 09:35:58;;;;;;;654.42;363.48;;;;;;;7.35;100.00;100409.59;5036734;28;20083;-52
2023/12/16 09:38:24;;;;;;;591.47;365.33;;;;;;;7.50;100.00;100417.22;5041067;28;20060;-52
2023/12/16 09:40:49;;;;;;;741.45;382.20;;;;;;;7.98;100.00;100415.13;5040915;28;20045;-51
2023/12/16 09:43:16;;;;;;;609.22;364.88;;;;;;;7.77;100.00;100421.06;5042820;28;20029;-52
2023/12/16 09:45:45;;;;;;;607.88;324.42;;;;;;;7.82;100.00;100416.97;5040332;28;20063;-53
2023/12/16 09:48:10;;;;;;;544.03;313.23;;;;;;;7.51;100.00;100420.72;5041913;28;20029;-52
2023/12/16 09:50:38;;;;;;;583.30;329.05;;;;;;;7.54;100.00;100429.50;5040067;28;20095;-51
2023/12/16 09:53:03;;;;;;;561.80;339.55;;;;;;;7.47;100.00;100416.19;5043104;28;20480;-53
2023/12/16 09:55:29;;;;;;;588.72;343.30;;;;;;;7.61;100.00;100415.16;5042586;28;20301;-52
2023/12/16 09:57:57;;;;;;;607.83;349.60;;;;;;;7.95;100.00;100416.75;5041758;28;20069;-53
2023/12/16 10:00:23;;;;;;;526.90;344.15;;;;;;;7.99;100.00;100409.13;5019954;28;20481;-52
2023/12/16 10:02:53;;;;;;;729.65;356.00;;;;;;;8.05;100.00;100409.38;5040662;28;20036;-51
2023/12/16 10:05:18;;;;;;;566.30;349.50;;;;;;;7.97;100.00;100403.00;5042524;28;20024;-51
2023/12/16 10:07:44;;;;;;;726.40;365.05;;;;;;;7.90;100.00;100410.47;5042333;28;20043;-52
2023/12/16 10:10:12;;;;;;;621.35;359.23;;;;;;;7.98;100.00;100402.16;5042077;28;20040;-53
2023/12/16 10:12:38;;;;;;;580.60;347.35;;;;;;;8.37;100.00;100394.41;5013986;28;20106;-52
2023/12/16 10:15:03;;;;;;;585.45;349.95;;;;;;;8.23;100.00;100391.19;5042298;28;20037;-52
2023/12/16 10:17:29;;;;;;;632.40;354.40;;;;;;;8.26;100.00;100380.06;5061822;28;20036;-51
2023/12/16 10:19:54;;;;;;;686.97;356.20;;;;;;;8.06;100.00;100380.94;5061542;28;20619;-51
2023/12/16 10:22:20;;;;;;;551.08;346.55;;;;;;;8.17;100.00;100375.38;5062743;28;20037;-51
2023/12/16 10:24:46;;;;;;;761.30;364.20;;;;;;;8.16;100.00;100371.88;5061157;28;20033;-51
2023/12/16 10:27:11;;;;;;;557.55;352.27;;;;;;;8.10;100.00;100362.94;5062319;28;20099;-52
2023/12/16 10:29:40;;;;;;;538.17;296.63;;;;;;;7.94;100.00;100344.09;5062520;28;20032;-52
2023/12/16 10:32:10;;;;;;;600.45;338.55;;;;;;;8.22;100.00;100345.34;5043400;28;20108;-51
2023/12/16 10:34:35;;;;;;;523.83;284.92;;;;;;;8.27;100.00;100343.84;5062237;28;20048;-52
2023/12/16 10:37:08;;;;;;;532.30;291.55;;;;;;;8.34;100.00;100340.69;5060714;28;20413;-52
2023/12/16 10:39:35;;;;;;;541.38;295.00;;;;;;;8.34;100.00;100350.19;5062548;28;20086;-50
2023/12/16 10:42:01;;;;;;;531.97;301.30;;;;;;;8.10;100.00;100348.28;5060176;28;20048;-52
2023/12/16 10:44:27;;;;;;;588.97;306.30;;;;;;;8.68;100.00;100337.78;5062612;28;20032;-52
2023/12/16 10:46:54;;;;;;;685.58;321.42;;;;;;;8.61;100.00;100335.78;5060020;28;20044;-51